createdAt,value
2018-04-17T00:10:51.286Z,13.6
2018-04-17T00:25:51.311Z,12.7
2018-04-17T00:40:51.291Z,13.6
2018-04-17T00:55:54.240Z,14.8
2018-04-17T01:16:07.833Z,16
2018-04-17T01:31:08.023Z,15.7
2018-04-17T01:46:22.174Z,13.4
2018-04-17T02:06:21.903Z,15.9
2018-04-17T02:36:22.103Z,15.4
2018-04-17T02:51:24.160Z,15.8
2018-04-17T03:26:34.223Z,14.1
2018-04-17T03:41:46.121Z,16.3
2018-04-17T04:01:45.793Z,15.1
2018-04-17T04:16:45.774Z,14.9
2018-04-17T04:31:45.993Z,14.4
2018-04-17T04:46:48.494Z,15.9
2018-04-17T05:06:58.961Z,16.5
2018-04-17T05:37:13.099Z,19.5
2018-04-17T05:57:12.662Z,18.4
2018-04-17T06:12:12.622Z,16.2
2018-04-17T06:27:12.797Z,19.6
2018-04-17T07:02:26.593Z,24.2
2018-04-17T07:17:25.232Z,23.1
2018-04-17T07:32:38.423Z,22.1
2018-04-17T07:52:38.188Z,22.2
2018-04-17T08:07:38.396Z,19.8
2018-04-17T08:22:38.423Z,22.7
2018-04-17T08:37:39.752Z,21.3
2018-04-17T08:57:51.958Z,25
2018-04-17T09:12:51.967Z,19.8
2018-04-17T09:28:07.551Z,17.3
2018-04-17T10:03:05.151Z,17.7
2018-04-17T10:18:17.301Z,16.6
2018-04-17T10:33:17.576Z,13.3
2018-04-17T10:53:17.975Z,9.4
2018-04-17T11:08:18.994Z,7.2
2018-04-17T11:23:34.055Z,6.9
2018-04-17T11:43:34.075Z,7.3
2018-04-17T11:58:35.075Z,6.1
2018-04-17T12:13:33.825Z,5.3
2018-04-17T12:33:47.657Z,6.9
2018-04-17T13:03:47.554Z,7.2
2018-04-17T13:19:00.363Z,6
2018-04-17T14:29:12.784Z,6.9
2018-04-17T14:44:12.803Z,4.8
2018-04-17T14:59:23.919Z,4.4
2018-04-17T15:14:24.055Z,4.5
2018-04-17T15:34:37.579Z,4.3
2018-04-17T16:04:37.422Z,4.1
2018-04-17T16:24:50.148Z,5.8
2018-04-17T16:39:50.228Z,5.8
2018-04-17T16:54:50.146Z,6.1
2018-04-17T17:14:50.389Z,5.5
2018-04-17T17:30:02.033Z,4.9
2018-04-17T17:45:01.899Z,5
2018-04-17T18:00:01.920Z,4.3
2018-04-17T18:50:16.969Z,4.9
2018-04-17T19:25:29.096Z,6.3
2018-04-17T19:40:31.443Z,7.4
2018-04-17T19:55:45.413Z,7.4
2018-04-17T20:31:00.418Z,8
2018-04-17T20:46:00.302Z,8.5
2018-04-17T21:06:03.889Z,8.1
2018-04-17T21:51:13.848Z,8.1
2018-04-17T22:11:27.378Z,7.5
2018-04-17T22:41:28.669Z,8.4
2018-04-17T23:31:55.920Z,7.8
2018-04-17T23:46:55.848Z,7.9
